Time;durP1;ratioP1;P1;durP2;ratioP2;P2;SDS_P1;SDS_P2;PMS_P1;PMS_P2;Temp;Humidity;BMP_temperature;BMP_pressure;BME280_temperature;BME280_humidity;BME280_pressure;Samples;Min_cycle;Max_cycle;Signal;HPM_P1;HPM_P2
2023/05/26 00:00:12;;;;;;;31.83;9.02;;;;;;;11.55;73.56;99865.84;6216074;23;20066;-80
2023/05/26 00:02:39;;;;;;;44.63;11.23;;;;;;;11.15;74.34;99865.63;6215930;23;20348;-80
2023/05/26 00:05:06;;;;;;;36.17;9.63;;;;;;;11.09;74.84;99850.50;6216112;23;20008;-80
2023/05/26 00:07:32;;;;;;;33.75;10.52;;;;;;;11.82;71.63;99851.00;6215954;23;20036;-80
2023/05/26 00:09:58;;;;;;;41.45;10.70;;;;;;;11.69;71.96;99849.38;6215395;23;20403;-80
2023/05/26 00:12:23;;;;;;;29.60;10.40;;;;;;;10.57;75.62;99866.16;6237978;23;20015;-79
2023/05/26 00:14:48;;;;;;;25.20;10.93;;;;;;;11.76;72.82;99858.13;6236630;23;20042;-80
2023/05/26 00:17:16;;;;;;;31.60;10.63;;;;;;;12.14;70.41;99862.19;6212639;23;20444;-80
2023/05/26 00:19:45;;;;;;;38.72;10.82;;;;;;;11.77;72.40;99866.97;6186787;23;20004;-79
2023/05/26 00:22:14;;;;;;;30.73;9.95;;;;;;;11.84;71.07;99841.72;6212329;23;20329;-79
2023/05/26 00:24:39;;;;;;;27.65;9.27;;;;;;;12.12;71.01;99864.31;6239578;23;20373;-80
2023/05/26 00:27:05;;;;;;;36.53;11.25;;;;;;;11.97;71.14;99862.88;6238206;22;20012;-80
2023/05/26 00:29:30;;;;;;;34.25;9.38;;;;;;;12.07;70.43;99853.47;6238226;23;20016;-80
2023/05/26 00:31:56;;;;;;;33.67;9.60;;;;;;;12.26;70.13;99877.19;6184940;23;20019;-80
2023/05/26 00:34:22;;;;;;;33.25;9.65;;;;;;;12.27;70.04;99867.31;6209674;23;20000;-80
2023/05/26 00:36:47;;;;;;;29.75;10.30;;;;;;;12.38;69.67;99864.63;6187191;23;20424;-80
2023/05/26 00:39:13;;;;;;;31.00;9.65;;;;;;;12.38;69.82;99874.53;6237434;23;20007;-80
2023/05/26 00:41:38;;;;;;;36.92;10.70;;;;;;;12.17;69.60;99846.47;6238798;22;20095;-80
2023/05/26 00:44:04;;;;;;;31.42;8.75;;;;;;;12.36;69.51;99849.84;6185275;23;20412;-80
2023/05/26 00:46:30;;;;;;;33.08;10.40;;;;;;;12.35;69.36;99854.38;6186361;23;20012;-80
2023/05/26 00:48:56;;;;;;;30.73;8.93;;;;;;;12.15;69.13;99831.69;6210689;23;20440;-80
2023/05/26 00:51:22;;;;;;;32.20;9.65;;;;;;;12.37;69.20;99870.19;6188015;23;20036;-80
2023/05/26 00:53:48;;;;;;;21.33;7.25;;;;;;;12.31;69.33;99865.78;6214235;23;20317;-80
2023/05/26 00:56:15;;;;;;;25.83;9.02;;;;;;;12.20;69.71;99867.44;6241959;23;20008;-80
2023/05/26 00:58:42;;;;;;;32.08;10.55;;;;;;;12.15;69.81;99864.63;6213047;23;20035;-80
2023/05/26 01:01:08;;;;;;;32.90;9.43;;;;;;;12.24;69.42;99865.09;6233145;22;20004;-80
2023/05/26 01:03:34;;;;;;;26.52;8.38;;;;;;;12.16;69.42;99860.94;6181662;23;20066;-80
2023/05/26 01:06:00;;;;;;;29.35;8.43;;;;;;;12.18;69.33;99858.84;6159383;23;20054;-80
2023/05/26 01:08:26;;;;;;;32.78;9.02;;;;;;;12.13;69.27;99855.22;6184446;23;20008;-80
2023/05/26 01:10:54;;;;;;;30.80;8.75;;;;;;;11.95;70.02;99854.28;6161278;23;20039;-80
2023/05/26 01:13:24;;;;;;;22.15;8.27;;;;;;;12.14;69.62;99862.19;6187270;23;20019;-80
2023/05/26 01:16:02;;;;;;;24.95;7.97;;;;;;;11.93;69.36;99843.00;6240580;23;20429;-80
2023/05/26 01:18:36;;;;;;;29.05;7.82;;;;;;;12.13;69.63;99865.91;6239288;23;20027;-80
2023/05/26 01:21:12;;;;;;;28.77;8.82;;;;;;;12.11;69.52;99868.00;6240752;23;20038;-80
2023/05/26 01:24:11;;;;;;;31.35;8.30;;;;;;;11.80;69.83;99859.28;6241640;23;20083;-79
2023/05/26 01:26:42;;;;;;;32.47;10.48;;;;;;;11.68;70.13;99836.25;6241913;23;19996;-80
2023/05/26 01:29:14;;;;;;;26.38;9.40;;;;;;;11.88;69.99;99858.13;6213237;23;20424;-80
2023/05/26 01:31:40;;;;;;;33.90;8.48;;;;;;;11.87;70.19;99857.31;6210820;23;20012;-80
2023/05/26 01:34:06;;;;;;;39.58;9.27;;;;;;;11.70;69.90;99851.03;6236134;23;20096;-80
2023/05/26 01:36:32;;;;;;;28.92;7.80;;;;;;;11.85;69.62;99854.06;6210765;23;20467;-80
2023/05/26 01:38:58;;;;;;;26.27;9.13;;;;;;;11.83;69.84;99844.63;6210665;23;19996;-80
2023/05/26 01:41:28;;;;;;;32.50;7.53;;;;;;;11.88;70.10;99863.50;6239235;23;20050;-80
2023/05/26 01:44:10;;;;;;;25.63;7.75;;;;;;;11.89;69.86;99862.44;6185187;23;20093;-80
2023/05/26 01:46:45;;;;;;;40.97;10.18;;;;;;;11.88;70.02;99869.63;6237233;23;20015;-80
2023/05/26 01:49:13;;;;;;;30.55;8.80;;;;;;;11.70;69.82;99851.03;6236776;23;20397;-80
2023/05/26 01:51:42;;;;;;;29.70;7.68;;;;;;;11.81;69.87;99863.59;6207530;23;20030;-81
2023/05/26 01:54:11;;;;;;;26.88;7.72;;;;;;;11.67;70.29;99872.06;6184326;23;20020;-79
2023/05/26 01:56:38;;;;;;;24.90;7.57;;;;;;;11.66;70.19;99857.84;6235835;23;20011;-80
2023/05/26 01:59:05;;;;;;;25.10;7.95;;;;;;;11.73;70.36;99866.59;6237746;23;20004;-80
2023/05/26 02:01:33;;;;;;;27.35;8.32;;;;;;;11.69;70.00;99844.03;6211300;23;20035;-80
2023/05/26 02:03:59;;;;;;;33.72;8.55;;;;;;;11.64;70.40;99857.25;6186561;23;20012;-80
2023/05/26 02:06:26;;;;;;;28.83;9.10;;;;;;;11.51;69.97;99846.75;6209893;23;20108;-80
2023/05/26 02:08:51;;;;;;;34.97;8.00;;;;;;;11.65;70.60;99871.44;6235110;23;20023;-80
2023/05/26 02:11:17;;;;;;;24.42;8.18;;;;;;;11.70;70.14;99871.59;6208076;23;20437;-80
2023/05/26 02:13:43;;;;;;;36.92;9.43;;;;;;;11.34;70.21;99837.78;6184114;23;20012;-80
2023/05/26 02:16:09;;;;;;;29.80;7.95;;;;;;;11.47;70.20;99863.47;6209711;23;20008;-80
2023/05/26 02:18:36;;;;;;;38.05;8.57;;;;;;;11.36;70.55;99858.97;6159762;23;20010;-80
2023/05/26 02:21:01;;;;;;;24.38;7.72;;;;;;;11.51;70.34;99870.81;6185093;23;20015;-80
2023/05/26 02:23:27;;;;;;;33.55;8.80;;;;;;;11.46;70.37;99860.03;6211036;23;20078;-80
2023/05/26 02:25:52;;;;;;;37.58;8.13;;;;;;;11.55;70.30;99880.03;6159094;23;20016;-80
2023/05/26 02:28:18;;;;;;;37.08;9.35;;;;;;;11.56;70.37;99884.31;6210011;23;20004;-81
2023/05/26 02:30:43;;;;;;;29.88;9.63;;;;;;;11.60;70.07;99879.34;6208819;23;20004;-80
2023/05/26 02:33:08;;;;;;;38.05;8.43;;;;;;;11.51;69.88;99868.16;6235110;22;20084;-80
2023/05/26 02:35:34;;;;;;;31.58;8.05;;;;;;;11.54;70.37;99872.22;6159208;23;20369;-80
2023/05/26 02:37:59;;;;;;;27.00;8.52;;;;;;;11.39;70.33;99872.66;6184218;23;20022;-80
2023/05/26 02:40:24;;;;;;;21.98;8.25;;;;;;;11.32;70.44;99863.91;6183200;23;20016;-79
2023/05/26 02:42:50;;;;;;;32.40;7.93;;;;;;;11.40;70.20;99871.59;6209748;23;20040;-80
2023/05/26 02:45:15;;;;;;;30.60;7.72;;;;;;;11.30;70.47;99869.50;6210072;23;20011;-80
2023/05/26 02:47:41;;;;;;;30.95;8.30;;;;;;;11.27;70.27;99850.41;6209704;23;20005;-80
2023/05/26 02:50:06;;;;;;;24.52;7.82;;;;;;;11.37;70.05;99860.56;6216089;23;20031;-79
2023/05/26 02:52:32;;;;;;;22.65;7.55;;;;;;;11.36;70.62;99865.09;6212657;23;20035;-80
2023/05/26 02:54:57;;;;;;;24.80;8.23;;;;;;;11.29;70.40;99872.41;6212887;23;20016;-80
2023/05/26 02:57:23;;;;;;;28.20;8.38;;;;;;;11.29;70.30;99859.06;6214459;23;20087;-80
2023/05/26 02:59:48;;;;;;;31.35;8.88;;;;;;;11.28;70.55;99857.41;6213547;23;20007;-80
2023/05/26 03:02:13;;;;;;;32.95;9.90;;;;;;;11.31;70.30;99868.44;6188800;23;20071;-80
2023/05/26 03:04:38;;;;;;;27.90;7.70;;;;;;;11.28;70.63;99873.44;6186719;23;20019;-80
2023/05/26 03:07:06;;;;;;;30.13;7.35;;;;;;;11.20;70.42;99871.91;6210377;23;20016;-80
2023/05/26 03:09:31;;;;;;;25.13;7.93;;;;;;;11.24;70.71;99851.72;6234778;23;20665;-80
2023/05/26 03:11:56;;;;;;;25.55;8.52;;;;;;;11.17;70.93;99859.00;6210285;23;20063;-80
2023/05/26 03:14:22;;;;;;;20.45;7.47;;;;;;;11.22;70.69;99869.00;6236283;22;20012;-80
2023/05/26 03:16:47;;;;;;;32.05;8.30;;;;;;;11.11;71.00;99872.47;6209295;23;20109;-80
2023/05/26 03:19:12;;;;;;;29.63;8.07;;;;;;;11.04;71.05;99851.19;6236447;23;20004;-80
2023/05/26 03:21:38;;;;;;;19.80;6.90;;;;;;;11.19;70.84;99864.13;6209141;23;20008;-80
2023/05/26 03:24:04;;;;;;;25.92;8.05;;;;;;;11.07;71.20;99852.59;6183305;23;20095;-80
2023/05/26 03:26:29;;;;;;;34.25;7.40;;;;;;;11.07;70.97;99849.91;6207435;23;20107;-80
2023/05/26 03:28:54;;;;;;;26.73;7.15;;;;;;;10.98;71.10;99835.25;6209776;23;20008;-80
2023/05/26 03:31:20;;;;;;;32.13;7.55;;;;;;;11.16;71.54;99875.28;6186048;23;20054;-79
2023/05/26 03:33:45;;;;;;;26.83;8.13;;;;;;;10.99;71.49;99861.72;6212325;23;20012;-79
2023/05/26 03:36:11;;;;;;;41.53;8.93;;;;;;;11.12;71.06;99850.84;6187492;23;20018;-80
2023/05/26 03:38:36;;;;;;;28.80;8.93;;;;;;;11.03;71.79;99875.47;6213224;23;20438;-79
2023/05/26 03:41:01;;;;;;;27.35;7.18;;;;;;;10.43;74.10;99887.88;6213737;23;20036;-79
2023/05/26 03:43:27;;;;;;;33.80;8.35;;;;;;;10.54;73.14;99871.94;6212119;23;20008;-80
2023/05/26 03:45:53;;;;;;;35.80;8.20;;;;;;;10.80;72.45;99861.97;6187025;23;20432;-80
2023/05/26 03:48:18;;;;;;;24.08;8.25;;;;;;;10.68;73.01;99867.25;6183760;23;20627;-79
2023/05/26 03:50:46;;;;;;;25.50;7.00;;;;;;;10.49;74.33;99885.13;6164448;23;20007;-80
2023/05/26 03:53:12;;;;;;;33.45;8.73;;;;;;;10.84;72.75;99863.97;6239579;23;20064;-79
2023/05/26 03:55:37;;;;;;;38.50;8.07;;;;;;;10.98;72.65;99881.47;6241390;23;20005;-79
2023/05/26 03:58:03;;;;;;;32.22;8.38;;;;;;;10.50;73.47;99869.94;6163987;23;20018;-79
2023/05/26 04:00:31;;;;;;;41.55;8.82;;;;;;;10.52;73.76;99891.88;6239078;23;20413;-79
2023/05/26 04:02:58;;;;;;;27.08;7.35;;;;;;;10.11;75.73;99897.03;6189407;23;20019;-79
2023/05/26 04:05:23;;;;;;;41.28;7.93;;;;;;;10.43;74.71;99879.88;6242492;23;20079;-79
2023/05/26 04:07:49;;;;;;;31.92;8.30;;;;;;;10.34;74.74;99891.88;6188018;23;20043;-79
2023/05/26 04:10:14;;;;;;;37.10;9.00;;;;;;;10.63;73.54;99887.66;6214694;23;20035;-79
2023/05/26 04:12:40;;;;;;;39.85;7.78;;;;;;;10.57;73.73;99894.72;6190255;23;20429;-79
2023/05/26 04:15:06;;;;;;;31.63;7.93;;;;;;;10.66;74.03;99901.38;6240736;22;20012;-79
2023/05/26 04:17:31;;;;;;;34.33;8.07;;;;;;;10.40;75.12;99897.13;6213011;23;20455;-79
2023/05/26 04:19:56;;;;;;;31.25;7.50;;;;;;;10.67;74.25;99903.00;6213919;23;20008;-79
2023/05/26 04:22:24;;;;;;;38.47;9.23;;;;;;;9.79;77.09;99910.41;6239394;23;20117;-79
2023/05/26 04:24:49;;;;;;;30.58;6.68;;;;;;;10.86;73.73;99893.94;6214109;23;20034;-79
2023/05/26 04:27:15;;;;;;;39.03;9.35;;;;;;;10.94;72.91;99898.19;6215011;23;20208;-79
2023/05/26 04:29:41;;;;;;;33.78;8.93;;;;;;;11.05;72.68;99908.91;6213276;23;20008;-79
2023/05/26 04:32:08;;;;;;;36.55;8.10;;;;;;;10.10;77.03;99914.84;6215558;23;20098;-79
2023/05/26 04:34:34;;;;;;;43.35;9.25;;;;;;;9.32;79.96;99912.78;6215001;23;20032;-80
2023/05/26 04:37:04;;;;;;;43.17;10.02;;;;;;;9.35;79.78;99904.38;6188963;23;20011;-80
2023/05/26 04:39:32;;;;;;;35.72;7.82;;;;;;;10.34;76.05;99918.56;6183919;23;20003;-78
2023/05/26 04:41:58;;;;;;;31.05;7.68;;;;;;;10.05;77.73;99906.69;6232667;23;20576;-81
2023/05/26 04:44:24;;;;;;;31.48;7.03;;;;;;;10.59;75.58;99918.50;6184169;23;20341;-81
2023/05/26 04:46:50;;;;;;;28.08;7.82;;;;;;;10.42;76.24;99907.59;6240161;23;20079;-80
2023/05/26 04:49:16;;;;;;;31.70;8.25;;;;;;;10.26;77.25;99925.00;6241040;23;20015;-80
2023/05/26 04:51:41;;;;;;;42.22;9.93;;;;;;;9.96;77.76;99918.66;6242114;23;20081;-80
2023/05/26 04:54:07;;;;;;;26.33;7.90;;;;;;;9.26;79.87;99910.97;6184973;23;20012;-80
2023/05/26 04:56:32;;;;;;;29.73;9.38;;;;;;;10.49;77.18;99927.03;6233016;23;20420;-81
2023/05/26 04:58:58;;;;;;;37.58;7.38;;;;;;;10.28;76.04;99906.94;6212364;23;20067;-80
2023/05/26 05:01:24;;;;;;;38.60;10.35;;;;;;;10.14;77.65;99926.75;6236246;23;20011;-80
2023/05/26 05:03:49;;;;;;;38.47;10.02;;;;;;;8.86;81.65;99932.47;6184155;23;20019;-80
2023/05/26 05:06:15;;;;;;;55.53;10.20;;;;;;;8.80;82.13;99919.97;6211678;23;20200;-80
2023/05/26 05:08:41;;;;;;;38.63;7.88;;;;;;;9.86;80.21;99930.84;6209056;23;19997;-80
2023/05/26 05:11:07;;;;;;;45.13;10.13;;;;;;;8.85;82.64;99935.31;6240756;23;20000;-80
2023/05/26 05:13:33;;;;;;;37.35;10.25;;;;;;;8.46;84.42;99925.63;6212840;23;20483;-80
2023/05/26 05:15:59;;;;;;;37.35;10.05;;;;;;;9.28;81.47;99938.22;6164556;23;20004;-80
2023/05/26 05:18:24;;;;;;;34.90;7.97;;;;;;;9.40;81.18;99942.66;6188665;23;20075;-80
2023/05/26 05:20:50;;;;;;;50.47;11.57;;;;;;;9.42;80.11;99932.59;6188221;23;20047;-80
2023/05/26 05:23:15;;;;;;;44.45;9.13;;;;;;;8.93;82.21;99935.13;6240464;23;20090;-79
2023/05/26 05:25:42;;;;;;;36.70;8.93;;;;;;;9.21;82.33;99938.25;6239993;23;20008;-80
2023/05/26 05:28:09;;;;;;;42.88;10.18;;;;;;;8.38;83.78;99935.66;6208467;23;20010;-80
2023/05/26 05:30:34;;;;;;;39.38;9.88;;;;;;;8.63;83.55;99942.78;6238962;22;20000;-79
2023/05/26 05:32:59;;;;;;;51.20;11.25;;;;;;;8.24;85.09;99956.13;6212118;23;20461;-79
2023/05/26 05:35:25;;;;;;;51.67;11.23;;;;;;;8.86;83.63;99955.63;6213901;23;20008;-79
2023/05/26 05:37:55;;;;;;;53.35;13.95;;;;;;;8.57;83.98;99934.81;6214249;23;20004;-80
2023/05/26 05:40:21;;;;;;;52.90;13.25;;;;;;;8.63;83.84;99966.72;6214483;23;20463;-79
2023/05/26 05:42:46;;;;;;;50.55;10.48;;;;;;;9.63;80.83;99956.22;6242043;22;20035;-80
2023/05/26 05:45:12;;;;;;;38.08;12.35;;;;;;;9.08;82.56;99962.28;6214726;23;20008;-79
2023/05/26 05:47:37;;;;;;;40.17;13.27;;;;;;;8.95;81.96;99967.66;6213066;23;20050;-79
2023/05/26 05:50:03;;;;;;;42.97;12.75;;;;;;;8.82;82.50;99954.41;6162604;23;20019;-79
2023/05/26 05:52:28;;;;;;;41.83;13.55;;;;;;;8.89;83.27;99969.31;6240524;23;20004;-79
2023/05/26 05:54:53;;;;;;;56.92;15.55;;;;;;;8.86;82.51;99945.78;6210439;23;20312;-79
2023/05/26 05:57:19;;;;;;;47.10;15.48;;;;;;;8.82;82.38;99975.69;6236526;23;20481;-79
2023/05/26 05:59:44;;;;;;;46.00;14.18;;;;;;;8.69;84.90;99973.06;6214494;23;20015;-79
2023/05/26 06:02:10;;;;;;;48.92;15.40;;;;;;;8.53;84.03;99977.00;6213183;23;20004;-79
2023/05/26 06:04:35;;;;;;;40.75;12.75;;;;;;;8.68;84.47;99969.59;6211868;23;20012;-79
2023/05/26 06:07:00;;;;;;;44.40;15.63;;;;;;;8.15;85.76;99978.63;6214230;23;20329;-79
2023/05/26 06:09:26;;;;;;;44.03;15.20;;;;;;;8.47;85.05;99982.31;6213329;23;20022;-79
2023/05/26 06:11:51;;;;;;;50.00;15.75;;;;;;;8.43;85.35;99981.91;6187506;23;20062;-79
2023/05/26 06:14:16;;;;;;;46.35;16.25;;;;;;;8.73;84.34;99968.97;6161959;23;20008;-79
2023/05/26 06:16:42;;;;;;;53.60;16.65;;;;;;;8.70;84.12;99980.84;6211216;23;20008;-80
2023/05/26 06:19:07;;;;;;;48.92;15.23;;;;;;;8.76;84.47;99984.50;6162586;23;20500;-79
2023/05/26 06:21:33;;;;;;;43.80;14.25;;;;;;;8.61;84.17;99983.91;6161755;23;20078;-79
2023/05/26 06:23:58;;;;;;;45.45;14.20;;;;;;;8.58;84.98;99989.66;6187641;23;20139;-79
2023/05/26 06:26:23;;;;;;;39.58;15.40;;;;;;;8.09;86.12;99996.22;6214990;23;20098;-79
2023/05/26 06:28:49;;;;;;;47.42;14.77;;;;;;;9.22;82.68;100003.81;6189249;23;20012;-79
2023/05/26 06:31:15;;;;;;;44.55;15.98;;;;;;;8.95;83.04;99981.78;6240125;23;20008;-79
2023/05/26 06:33:41;;;;;;;38.80;14.65;;;;;;;9.85;79.77;100002.03;6216036;23;20031;-79
2023/05/26 06:36:06;;;;;;;52.47;16.85;;;;;;;8.67;83.63;99993.75;6192420;23;20019;-79
2023/05/26 06:38:31;;;;;;;57.63;16.55;;;;;;;8.41;84.48;99989.25;6216317;23;20452;-79
2023/05/26 06:40:57;;;;;;;52.10;16.50;;;;;;;9.59;80.86;99995.00;6191815;23;20086;-79
2023/05/26 06:43:22;;;;;;;56.40;17.42;;;;;;;8.76;83.20;100009.28;6212823;23;20023;-80
2023/05/26 06:45:48;;;;;;;42.45;15.10;;;;;;;9.18;82.39;100001.78;6215374;23;20004;-80
2023/05/26 06:48:13;;;;;;;44.05;14.95;;;;;;;9.36;81.53;99988.59;6239486;23;20004;-79
2023/05/26 06:50:38;;;;;;;47.15;15.82;;;;;;;9.10;82.50;99996.69;6240607;23;20612;-79
2023/05/26 06:53:04;;;;;;;43.38;16.40;;;;;;;9.04;83.87;100009.81;6216769;23;20004;-79
2023/05/26 06:55:29;;;;;;;57.47;16.58;;;;;;;8.94;82.61;100008.63;6241724;23;20082;-79
2023/05/26 06:57:55;;;;;;;54.40;16.27;;;;;;;9.09;83.75;100021.72;6188367;23;20011;-79
2023/05/26 07:00:21;;;;;;;49.30;17.05;;;;;;;9.61;81.56;100016.16;6216104;23;20019;-79
2023/05/26 07:02:46;;;;;;;49.08;16.05;;;;;;;9.19;82.06;100009.56;6241024;23;20012;-79
2023/05/26 07:05:12;;;;;;;37.95;15.40;;;;;;;9.41;82.35;100024.25;6190296;23;20004;-80
2023/05/26 07:07:37;;;;;;;41.38;16.60;;;;;;;10.17;79.48;100008.19;6190984;23;20038;-79
2023/05/26 07:10:03;;;;;;;61.75;18.65;;;;;;;9.39;81.75;100033.47;6165238;23;20023;-79
2023/05/26 07:12:28;;;;;;;54.13;18.13;;;;;;;9.73;80.29;100017.09;6216059;23;20008;-79
2023/05/26 07:14:53;;;;;;;36.63;15.63;;;;;;;9.18;81.98;100012.44;6215493;23;20004;-79
2023/05/26 07:17:19;;;;;;;46.45;16.92;;;;;;;9.27;81.79;100025.31;6216889;23;20011;-79
2023/05/26 07:19:44;;;;;;;48.67;18.65;;;;;;;9.86;80.67;100010.84;6214854;23;20008;-80
2023/05/26 07:22:10;;;;;;;37.15;15.95;;;;;;;9.37;81.18;100015.00;6212764;23;20086;-79
2023/05/26 07:24:35;;;;;;;39.67;15.77;;;;;;;9.96;80.67;100016.53;6216202;23;20446;-79
2023/05/26 07:27:00;;;;;;;50.17;16.98;;;;;;;9.37;81.77;99998.22;6242883;23;20471;-79
2023/05/26 07:29:26;;;;;;;44.20;17.00;;;;;;;10.01;80.41;100020.19;6241734;23;20008;-79
2023/05/26 07:31:51;;;;;;;41.78;17.02;;;;;;;10.33;79.06;100010.34;6161652;23;20012;-80
2023/05/26 07:34:17;;;;;;;39.80;16.73;;;;;;;10.03;80.17;100006.63;6164195;23;20328;-79
2023/05/26 07:36:44;;;;;;;40.42;13.68;;;;;;;10.84;78.58;100015.38;6217023;23;20027;-79
2023/05/26 07:39:09;;;;;;;48.92;16.85;;;;;;;10.61;77.91;100026.72;6214547;23;19996;-80
2023/05/26 07:41:35;;;;;;;38.55;15.48;;;;;;;11.63;75.69;100015.25;6190837;23;20015;-80
2023/05/26 07:44:01;;;;;;;43.13;16.63;;;;;;;10.32;77.91;100017.53;6215294;23;20054;-79
2023/05/26 07:46:26;;;;;;;40.00;15.13;;;;;;;10.90;78.15;100022.53;6214402;23;20550;-80
2023/05/26 07:48:53;;;;;;;37.67;13.90;;;;;;;10.56;76.96;100029.22;6215506;23;20011;-79
2023/05/26 07:51:19;;;;;;;44.75;16.50;;;;;;;10.59;79.03;100019.97;6215358;23;20348;-79
2023/05/26 07:53:44;;;;;;;41.85;16.30;;;;;;;10.95;78.34;100033.34;6214943;23;20008;-80
2023/05/26 07:56:10;;;;;;;43.20;15.85;;;;;;;10.77;78.59;100012.78;6215778;23;20008;-79
2023/05/26 07:58:38;;;;;;;46.88;16.63;;;;;;;10.52;79.31;100028.84;6216966;23;20090;-79
2023/05/26 08:01:06;;;;;;;44.75;16.63;;;;;;;10.70;79.00;100030.75;6167154;23;20012;-79
2023/05/26 08:03:32;;;;;;;50.95;17.20;;;;;;;11.02;78.16;100031.44;6217250;23;20024;-79
2023/05/26 08:05:57;;;;;;;38.95;15.65;;;;;;;11.59;77.12;100038.97;6242391;23;20043;-80
2023/05/26 08:08:23;;;;;;;37.65;15.82;;;;;;;11.13;77.53;100025.34;6215653;23;20099;-80
2023/05/26 08:10:48;;;;;;;43.72;16.63;;;;;;;11.22;78.11;100034.69;6217184;23;20004;-79
2023/05/26 08:13:13;;;;;;;37.25;16.17;;;;;;;11.40;77.87;100033.88;6215191;23;20008;-80
2023/05/26 08:15:39;;;;;;;37.47;11.23;;;;;;;12.79;73.08;100019.00;6215075;23;20019;-80
2023/05/26 08:18:04;;;;;;;37.45;14.57;;;;;;;12.32;74.47;100038.78;6189597;23;20446;-80
2023/05/26 08:20:29;;;;;;;39.83;16.17;;;;;;;12.31;74.12;100039.81;6188800;23;20466;-80
2023/05/26 08:22:58;;;;;;;40.00;15.38;;;;;;;12.19;75.20;100030.94;6241361;23;20008;-79
2023/05/26 08:25:24;;;;;;;42.08;16.60;;;;;;;12.22;74.85;100039.31;6216078;23;20075;-80
2023/05/26 08:27:49;;;;;;;41.67;15.95;;;;;;;11.76;76.83;100042.69;6212396;23;20008;-80
2023/05/26 08:30:15;;;;;;;39.20;14.93;;;;;;;11.66;76.59;100031.69;6190309;23;20004;-79
2023/05/26 08:32:40;;;;;;;56.00;16.58;;;;;;;11.32;77.57;100029.63;6191268;23;20087;-79
2023/05/26 08:35:06;;;;;;;40.55;15.48;;;;;;;11.26;76.58;100014.50;6210828;23;20019;-79
2023/05/26 08:37:31;;;;;;;41.95;15.30;;;;;;;11.42;77.48;100029.13;6191472;23;20035;-79
2023/05/26 08:39:57;;;;;;;58.15;16.60;;;;;;;11.42;77.62;100016.56;6241428;23;20031;-79
2023/05/26 08:42:31;;;;;;;41.22;15.30;;;;;;;11.30;77.36;100013.00;6213969;22;20011;-79
2023/05/26 08:44:57;;;;;;;38.75;12.40;;;;;;;12.45;75.45;100020.59;6193017;23;20489;-80
2023/05/26 08:47:23;;;;;;;56.83;16.50;;;;;;;12.01;77.29;100029.16;6215657;23;20008;-79
2023/05/26 08:50:02;;;;;;;52.25;16.67;;;;;;;12.30;75.98;100017.56;6215372;23;20162;-79
2023/05/26 08:52:28;;;;;;;35.10;11.23;;;;;;;13.14;74.14;100021.66;6216550;23;20024;-80
2023/05/26 08:54:54;;;;;;;52.80;16.92;;;;;;;12.84;74.46;100023.66;6243006;23;20380;-79
2023/05/26 08:57:20;;;;;;;40.72;15.25;;;;;;;12.13;75.27;99994.38;6242970;23;20010;-80
2023/05/26 08:59:49;;;;;;;43.55;14.63;;;;;;;12.71;75.64;100009.44;6216860;23;20042;-80
2023/05/26 09:02:15;;;;;;;40.50;16.35;;;;;;;12.15;75.68;100011.00;6213808;23;20004;-79
2023/05/26 09:04:40;;;;;;;47.35;16.52;;;;;;;13.20;74.55;100002.75;6215960;23;20618;-80
2023/05/26 09:07:07;;;;;;;53.35;17.27;;;;;;;12.38;76.29;100014.56;6241762;23;20083;-79
2023/05/26 09:09:32;;;;;;;48.05;17.55;;;;;;;12.53;76.03;100000.72;6242100;23;20458;-79
2023/05/26 09:11:58;;;;;;;45.50;16.98;;;;;;;12.38;76.13;100000.34;6241188;23;20004;-80
2023/05/26 09:14:24;;;;;;;26.63;10.00;;;;;;;13.76;73.64;100012.69;6190063;23;20008;-80
2023/05/26 09:16:49;;;;;;;38.92;15.98;;;;;;;13.89;72.34;99998.97;6215555;23;20011;-80
2023/05/26 09:19:17;;;;;;;45.70;13.57;;;;;;;13.02;74.55;99984.13;6240430;23;20062;-80
2023/05/26 09:21:47;;;;;;;56.72;16.95;;;;;;;13.03;74.43;100015.25;6241175;23;20091;-80
2023/05/26 09:24:22;;;;;;;53.53;16.48;;;;;;;12.50;76.37;100009.19;6242014;23;20000;-79
2023/05/26 09:26:49;;;;;;;42.25;15.43;;;;;;;13.18;74.76;100006.72;6216900;23;20362;-80
2023/05/26 09:29:16;;;;;;;49.28;17.10;;;;;;;13.02;74.55;100018.97;6213084;23;20031;-80
2023/05/26 09:31:44;;;;;;;52.40;17.15;;;;;;;12.46;76.06;100013.38;6241526;23;20070;-80
2023/05/26 09:34:10;;;;;;;49.05;16.67;;;;;;;13.07;74.64;100013.75;6213977;23;20043;-80
2023/05/26 09:36:37;;;;;;;46.65;16.15;;;;;;;13.06;74.95;100019.34;6214430;23;19999;-80
2023/05/26 09:39:08;;;;;;;51.67;17.00;;;;;;;12.61;75.76;99997.69;6240881;23;20071;-79
2023/05/26 09:41:39;;;;;;;56.03;16.58;;;;;;;12.88;75.64;100012.22;6211591;23;20016;-80
2023/05/26 09:44:13;;;;;;;39.50;14.57;;;;;;;13.43;71.85;100015.31;6214471;23;20016;-80
2023/05/26 09:46:40;;;;;;;41.83;15.90;;;;;;;13.38;72.00;100010.66;6241801;23;20000;-80
2023/05/26 09:49:13;;;;;;;36.50;11.50;;;;;;;14.66;70.61;100000.00;6216049;23;20008;-80
2023/05/26 09:51:40;;;;;;;54.75;17.27;;;;;;;13.84;71.25;100022.25;6240792;23;20012;-80
2023/05/26 09:54:06;;;;;;;47.60;15.82;;;;;;;13.34;72.20;100004.13;6214498;23;20345;-80
2023/05/26 09:56:37;;;;;;;52.17;16.77;;;;;;;13.15;73.84;100004.53;6242617;23;20416;-80
2023/05/26 09:59:06;;;;;;;44.28;17.45;;;;;;;13.60;72.65;100012.66;6192238;23;20027;-80
2023/05/26 10:01:37;;;;;;;47.65;14.65;;;;;;;13.53;73.21;100010.94;6216240;23;20007;-80
2023/05/26 10:04:09;;;;;;;44.67;15.73;;;;;;;13.83;73.81;100002.63;6243640;23;20435;-80
2023/05/26 10:06:36;;;;;;;56.13;16.27;;;;;;;13.69;72.53;100011.22;6217328;23;20019;-80
2023/05/26 10:09:03;;;;;;;30.77;13.15;;;;;;;14.45;72.36;100008.00;6217161;23;20000;-80
2023/05/26 10:11:32;;;;;;;49.33;15.98;;;;;;;14.20;69.33;100014.56;6217703;23;20472;-80
2023/05/26 10:13:58;;;;;;;40.25;14.00;;;;;;;14.20;70.97;100011.88;6216849;23;20020;-80
2023/05/26 10:16:23;;;;;;;35.05;11.88;;;;;;;15.18;68.95;99992.38;6217709;23;20499;-80
2023/05/26 10:18:49;;;;;;;51.75;13.75;;;;;;;15.64;67.08;100001.81;6192734;23;20015;-80
2023/05/26 10:21:17;;;;;;;45.10;16.45;;;;;;;14.33;69.23;100008.06;6217767;23;20321;-80
2023/05/26 10:23:50;;;;;;;51.97;14.60;;;;;;;14.01;72.15;100015.84;6217262;23;20011;-80
2023/05/26 10:26:40;;;;;;;32.67;13.43;;;;;;;14.45;70.71;99999.94;6244683;23;20023;-80
2023/05/26 10:29:08;;;;;;;33.35;14.98;;;;;;;14.26;69.87;100002.03;6243681;23;20042;-80
2023/05/26 10:31:35;;;;;;;38.50;12.60;;;;;;;15.20;69.99;99992.94;6244380;23;20004;-80
2023/05/26 10:34:12;;;;;;;42.47;13.65;;;;;;;15.27;69.84;99974.72;6243767;22;20018;-80
2023/05/26 10:36:37;;;;;;;52.95;17.30;;;;;;;14.67;69.15;99996.28;6244084;23;20011;-80
2023/05/26 10:39:11;;;;;;;48.92;16.42;;;;;;;14.56;69.24;99991.81;6217243;23;20340;-80
2023/05/26 10:41:39;;;;;;;44.90;15.00;;;;;;;14.41;69.97;99974.63;6243818;23;20027;-80
2023/05/26 10:44:04;;;;;;;47.17;15.00;;;;;;;14.19;69.55;99988.78;6192078;23;20440;-80
2023/05/26 10:46:45;;;;;;;36.35;11.90;;;;;;;15.30;67.62;99976.94;6244316;23;20019;-81
2023/05/26 10:49:22;;;;;;;52.03;16.25;;;;;;;14.98;69.31;99990.22;6243854;23;20083;-81
2023/05/26 10:51:54;;;;;;;40.70;14.18;;;;;;;14.91;68.96;99994.19;6192321;23;20542;-80
2023/05/26 10:54:24;;;;;;;35.33;12.93;;;;;;;14.87;69.81;99982.31;6243841;23;20482;-80
2023/05/26 10:56:52;;;;;;;37.60;13.60;;;;;;;14.98;68.59;99994.81;6218172;23;20011;-80
2023/05/26 10:59:35;;;;;;;37.47;12.60;;;;;;;15.40;69.45;99992.34;6216868;23;20000;-80
2023/05/26 11:02:03;;;;;;;31.55;11.65;;;;;;;16.27;66.79;99999.19;6191488;23;20081;-80
2023/05/26 11:04:45;;;;;;;28.73;12.48;;;;;;;15.64;66.57;99989.16;6241985;23;20000;-81
2023/05/26 11:07:23;;;;;;;40.75;13.73;;;;;;;15.35;67.84;99985.06;6187743;23;20004;-80
2023/05/26 11:10:02;;;;;;;44.03;13.55;;;;;;;15.98;66.77;99984.41;6209366;23;20035;-80
2023/05/26 11:12:48;;;;;;;50.28;15.05;;;;;;;16.19;65.16;99980.00;6238023;23;20008;-81
2023/05/26 11:15:33;;;;;;;43.10;11.77;;;;;;;15.95;67.35;99968.75;6212141;23;20344;-80
2023/05/26 11:18:06;;;;;;;40.13;12.43;;;;;;;16.21;66.21;99977.84;6216111;23;20012;-81